This is the latest recevied weather packets stored in our database for station/object SQ4IXR-4. If no packets are shown the sender has not sent any weather packets the latest 10 day(s).
| Time | Temp. | Humidity | Pressure | Rain* | Wind** | Luminosity | Snow |
|---|---|---|---|---|---|---|---|
| 1777627689 | 24.44° C | 28% | 1028.5 hPa | - | - | - | - |
| 1777626862 | 24.44° C | 28% | 1028.7 hPa | - | - | - | - |
| 1777626048 | 25° C | 26% | 1028.7 hPa | - | - | - | - |
| 1777625237 | 30.56° C | 20% | 1028.4 hPa | - | - | - | - |
| 1777624399 | 31.67° C | 19% | 1028.3 hPa | - | - | - | - |
| 1777623567 | 21.11° C | 33% | 1029 hPa | - | - | - | - |
| 1777622743 | 21.67° C | 32% | 1029 hPa | - | - | - | - |
| 1777621918 | 20.56° C | 34% | 1029 hPa | - | - | - | - |
| 1777621094 | 20° C | 36% | 1029.1 hPa | - | - | - | - |
| 1777620265 | 17.22° C | 40% | 1029.1 hPa | - | - | - | - |
| 1777619439 | 16.67° C | 37% | 1029.1 hPa | - | - | - | - |
| 1777618623 | 20° C | 30% | 1028.8 hPa | - | - | - | - |
| 1777617798 | 22.22° C | 27% | 1028.7 hPa | - | - | - | - |
| 1777616967 | 18.89° C | 33% | 1029 hPa | - | - | - | - |
| 1777616137 | 14.44° C | 41% | 1029.2 hPa | - | - | - | - |
| 1777615313 | 13.89° C | 40% | 1029.3 hPa | - | - | - | - |
| 1777614488 | 13.33° C | 41% | 1029.1 hPa | - | - | - | - |
| 1777613664 | 12.78° C | 43% | 1029 hPa | - | - | - | - |
| 1777612839 | 12.78° C | 44% | 1029.1 hPa | - | - | - | - |
| 1777612016 | 12.22° C | 45% | 1029 hPa | - | - | - | - |
| 1777611192 | 12.22° C | 45% | 1029 hPa | - | - | - | - |
| 1777610367 | 11.67° C | 47% | 1029.1 hPa | - | - | - | - |
| 1777609543 | 11.11° C | 48% | 1029.1 hPa | - | - | - | - |
| 1777608719 | 10.56° C | 49% | 1029.1 hPa | - | - | - | - |
| 1777607894 | 10° C | 51% | 1029.3 hPa | - | - | - | - |
* Rain since midnight (hover to see other rain measurements)
** Current wind speed in m/s (hover to see current wind gust speed)